Latest Coastal Weather Observations for Port Kembla Harbour

IDN60701

Issued at 6:51 pm EDT Thursday 21 February 2019 (issued every 10 minutes, with the page automatically refreshed every 10 minutes)

About coastal observations | Map of coastal stations | Coastal observations for NSW | Marine services | Other Formats
Station Details ID: 068253 Name: PORT KEMBLA NTC AWS Lat: -34.47 Lon: 150.91 Height: 0.0 m
Data from the previous 72 hours. | See also: Recent months for locations in New South Wales
Date/Time
EDT
Wind Sea
Height
m
Swell Vis
km
Cloud Weather Temp
°C
Press
hPa
Rain since
9am
mm
Dir  Spd
kts
Gust
kts
Height
m
Period
s
Dir
21/06:30pm SW 12 17 - - - - - - - 21.0 1017.0 -
21/06:00pm SSW 9 17 - - - - - - - 21.3 1016.7 -
21/05:30pm SSW 8 16 - - - - - - - 21.2 1016.5 -
21/05:00pm SSW 7 13 - - - - - - - 21.3 1016.3 -
21/04:30pm SSW 6 11 - - - - - - - 21.1 1016.2 -
21/04:00pm SSW 5 10 - - - - - - - 21.1 1016.2 -
21/03:30pm SW 8 13 - - - - - - - 20.5 1016.2 -
21/03:00pm SSW 7 15 - - - - - - - 20.2 1016.6 -
21/02:30pm SSW 9 18 - - - - - - - 21.7 1016.9 -
21/02:00pm SSW 8 16 - - - - - - - 22.5 1016.8 -
21/01:30pm S 9 17 - - - - - - - 22.7 1016.8 -
21/01:00pm S 9 16 - - - - - - - 22.4 1016.8 -
21/12:30pm SSW 10 16 - - - - - - - 22.5 1016.9 -
21/12:00pm SSW 9 15 - - - - - - - 22.4 1016.9 -
21/11:30am S 8 14 - - - - - - - 22.5 1016.9 -
21/11:00am SSW 9 16 - - - - - - - 21.8 1016.8 -
21/10:30am SSW 7 13 - - - - - - - 21.9 1016.6 -
21/10:00am SSW 6 12 - - - - - - - 21.9 1016.4 -
21/09:30am SSW 7 11 - - - - - - - 21.4 1016.1 -
21/09:00am SSW 7 12 - - - - - - - 21.1 1015.9 -
21/08:30am SW 8 12 - - - - - - - 20.5 1015.5 -
21/08:00am SW 8 11 - - - - - - - 20.4 1015.1 -
21/07:30am SW 7 10 - - - - - - - 20.0 1014.8 -
21/07:00am SW 7 10 - - - - - - - 19.8 1014.5 -
21/06:30am SW 7 9 - - - - - - - 19.9 1014.2 -
21/06:00am SW 6 8 - - - - - - - 20.1 1013.9 -
21/05:30am SW 7 9 - - - - - - - 20.3 1013.6 -
21/05:00am SW 6 8 - - - - - - - 20.2 1013.4 -
21/04:30am SW 7 10 - - - - - - - 20.2 1013.4 -
21/04:00am SW 8 12 - - - - - - - 20.0 1013.3 -
21/03:30am SW 9 13 - - - - - - - 20.1 1013.2 -
21/03:00am SW 8 12 - - - - - - - 20.3 1013.4 -
21/02:30am SW 6 9 - - - - - - - 20.5 1013.3 -
21/02:00am SW 6 8 - - - - - - - 20.6 1013.4 -
21/01:30am SW 5 7 - - - - - - - 20.8 1013.6 -
21/01:00am SW 6 8 - - - - - - - 20.7 1013.6 -
21/12:30am SW 5 8 - - - - - - - 20.4 1013.6 -
21/12:00am SW 6 8 - - - - - - - 20.4 1013.6 -
 
Date/Time
EDT
Wind Sea
Height
m
Swell Vis
km
Cloud Weather Temp
°C
Press
hPa
Rain since
9am
mm
Dir  Spd
kts
Gust
kts
Height
m
Period
s
Dir
20/11:30pm SW 7 11 - - - - - - - 20.4 1013.7 -
20/11:00pm SW 7 10 - - - - - - - 20.5 1013.6 -
20/10:30pm SSW 6 10 - - - - - - - 20.6 1013.6 -
20/10:00pm SSW 5 9 - - - - - - - 21.1 1013.6 -
20/09:30pm SW 5 7 - - - - - - - 21.0 1013.2 -
20/09:00pm SW 5 7 - - - - - - - 20.7 1012.7 -
20/08:30pm SW 7 10 - - - - - - - 20.8 1012.2 -
20/08:00pm WSW 6 9 - - - - - - - 20.6 1011.6 -
20/07:30pm WSW 4 6 - - - - - - - 20.4 1011.2 -
20/07:00pm SW 7 10 - - - - - - - 20.2 1011.0 -
20/06:30pm SW 7 10 - - - - - - - 20.4 1011.0 -
20/06:00pm SW 8 12 - - - - - - - 20.3 1010.7 -
20/05:30pm SSW 6 11 - - - - - - - 20.3 1010.5 -
20/05:00pm SSW 7 14 - - - - - - - 20.6 1010.4 -
20/04:30pm SSW 6 12 - - - - - - - 20.5 1010.4 -
20/04:00pm SSW 7 11 - - - - - - - 20.3 1010.4 -
20/03:30pm SSW 6 12 - - - - - - - 20.8 1010.6 -
20/03:00pm SSW 6 10 - - - - - - - 20.6 1010.9 -
20/02:30pm SSW 5 10 - - - - - - - 20.3 1011.2 -
20/02:00pm S 5 10 - - - - - - - 19.7 1011.4 -
20/01:30pm SW 6 10 - - - - - - - 19.7 1011.6 -
20/01:00pm SW 7 10 - - - - - - - 19.8 1011.8 -
20/12:30pm SW 7 12 - - - - - - - 20.0 1012.0 -
20/12:00pm S 5 12 - - - - - - - 20.5 1012.0 -
20/11:30am SW 6 10 - - - - - - - 20.1 1012.3 -
20/11:00am SW 7 11 - - - - - - - 21.1 1012.4 -
20/10:30am SW 8 12 - - - - - - - 20.9 1012.3 -
20/10:00am SSW 5 10 - - - - - - - 20.9 1012.2 -
20/09:30am SW 7 10 - - - - - - - 20.6 1012.0 -
20/09:00am SW 9 12 - - - - - - - 20.3 1012.0 -
20/08:30am SW 7 10 - - - - - - - 20.5 1012.0 -
20/08:00am SW 7 9 - - - - - - - 20.3 1011.7 -
20/07:30am SW 7 11 - - - - - - - 20.2 1011.4 -
20/07:00am SW 6 9 - - - - - - - 20.2 1011.3 -
20/06:30am SW 7 12 - - - - - - - 20.1 1011.2 -
20/06:00am SW 7 12 - - - - - - - 20.1 1011.2 -
20/05:30am SW 8 13 - - - - - - - 20.0 1011.1 -
20/05:00am SW 9 13 - - - - - - - 19.9 1011.1 -
20/04:30am WSW 7 10 - - - - - - - 20.0 1011.0 -
20/04:00am SW 8 12 - - - - - - - 20.5 1011.1 -
20/03:30am SW 8 12 - - - - - - - 20.4 1011.2 -
20/03:00am SW 9 12 - - - - - - - 20.3 1011.5 -
20/02:30am SW 8 13 - - - - - - - 20.3 1011.6 -
20/02:00am SW 9 13 - - - - - - - 20.2 1012.1 -
20/01:30am SW 9 13 - - - - - - - 20.3 1012.4 -
20/01:00am SW 8 12 - - - - - - - 20.3 1012.8 -
20/12:30am SW 8 11 - - - - - - - 20.3 1013.0 -
20/12:00am SW 9 12 - - - - - - - 20.1 1013.1 -
 
Date/Time
EDT
Wind Sea
Height
m
Swell Vis
km
Cloud Weather Temp
°C
Press
hPa
Rain since
9am
mm
Dir  Spd
kts
Gust
kts
Height
m
Period
s
Dir
19/11:30pm SW 9 14 - - - - - - - 20.0 1013.1 -
19/11:00pm SW 9 14 - - - - - - - 20.1 1013.1 -
19/10:30pm SW 9 12 - - - - - - - 20.0 1013.2 -
19/10:00pm SW 10 14 - - - - - - - 19.9 1013.1 -
19/09:30pm SW 12 17 - - - - - - - 19.9 1012.7 -
19/09:00pm SW 12 19 - - - - - - - 20.0 1012.2 -
19/08:30pm SW 12 20 - - - - - - - 19.9 1011.7 -
19/08:00pm SW 11 18 - - - - - - - 19.8 1011.3 -
19/07:30pm SW 12 20 - - - - - - - 19.7 1010.7 -
19/07:00pm SW 11 19 - - - - - - - 20.0 1010.2 -
19/06:30pm SW 11 19 - - - - - - - 20.2 1009.7 -
19/06:00pm SW 13 21 - - - - - - - 20.5 1009.2 -
19/05:30pm SSW 10 18 - - - - - - - 21.0 1008.6 -
19/05:00pm SSW 10 17 - - - - - - - 21.6 1008.3 -
19/04:30pm SSW 9 21 - - - - - - - 22.0 1008.1 -
19/04:00pm SSW 12 22 - - - - - - - 21.9 1007.9 -
19/03:30pm SSW 11 20 - - - - - - - 21.8 1007.9 -
19/03:00pm SSW 10 20 - - - - - - - 22.2 1007.9 -
19/02:30pm SSW 11 22 - - - - - - - 22.1 1007.9 -
19/02:00pm S 10 19 - - - - - - - 22.5 1007.8 -
19/01:30pm S 13 23 - - - - - - - 22.0 1007.5 -
19/01:00pm S 13 24 - - - - - - - 21.9 1007.6 -
19/12:30pm S 12 21 - - - - - - - 22.2 1007.3 -
19/12:00pm S 12 22 - - - - - - - 22.1 1007.4 -
19/11:30am S 12 23 - - - - - - - 22.4 1007.3 -
19/11:00am S 11 22 - - - - - - - 21.9 1007.4 -
19/10:30am S 10 18 - - - - - - - 21.9 1007.3 -
19/10:00am S 10 19 - - - - - - - 21.5 1007.0 -
19/09:30am SSW 9 16 - - - - - - - 21.3 1006.7 -
19/09:00am SSW 10 18 - - - - - - - 21.6 1006.5 -
19/08:30am SSW 7 13 - - - - - - - 21.7 1006.1 -
19/08:00am SSW 8 13 - - - - - - - 21.7 1006.0 -
19/07:30am SSW 5 9 - - - - - - - 23.4 1005.5 -
19/07:00am SSW 3 5 - - - - - - - 23.7 1005.2 -
19/06:30am N 4 7 - - - - - - - 22.9 1004.2 -
19/06:00am N 5 8 - - - - - - - 23.2 1004.2 -
19/05:30am N 6 10 - - - - - - - 22.7 1004.4 -
19/05:00am N 8 15 - - - - - - - 22.8 1004.4 -
19/04:30am NNE 13 18 - - - - - - - 22.7 1004.3 -
19/04:00am N 7 11 - - - - - - - 22.5 1004.8 -
19/03:30am NNE 11 15 - - - - - - - 22.5 1004.9 -
19/03:00am NE 12 16 - - - - - - - 22.7 1005.4 -
19/02:30am NNE 7 9 - - - - - - - 23.4 1006.7 -
19/02:00am NNW 8 14 - - - - - - - 23.4 1007.1 -
19/01:30am N 4 7 - - - - - - - 22.8 1006.4 -
19/01:00am NE 3 7 - - - - - - - 22.9 1006.6 -
19/12:30am NNW 2 4 - - - - - - - 23.0 1007.8 -
19/12:00am ENE 7 12 - - - - - - - 23.0 1007.4 -
 
Date/Time
EDT
Wind Sea
Height
m
Swell Vis
km
Cloud Weather Temp
°C
Press
hPa
Rain since
9am
mm
Dir  Spd
kts
Gust
kts
Height
m
Period
s
Dir
18/11:30pm SE 5 8 - - - - - - - 22.7 1007.3 -
18/11:00pm SSW 5 8 - - - - - - - 23.5 1008.0 -
18/10:30pm SSE 2 5 - - - - - - - 23.0 1007.6 -
18/10:00pm ESE 2 3 - - - - - - - 23.0 1006.9 -
18/09:30pm SE 4 7 - - - - - - - 23.5 1006.4 -
18/09:00pm SSE 2 6 - - - - - - - 24.2 1006.0 -
18/08:30pm NNE 8 12 - - - - - - - 23.8 1004.8 -
18/08:00pm NNE 10 15 - - - - - - - 23.4 1004.6 -
18/07:30pm N 11 15 - - - - - - - 23.4 1004.2 -
18/07:00pm NNE 13 17 - - - - - - - 23.8 1003.8 -

Other formats

Comma delimited format used in spreadsheet applications
http://www.bom.gov.au/fwo/IDN60701/IDN60701.95745.axf

JavaScript Object Notation format (JSON) in row-major order
http://www.bom.gov.au/fwo/IDN60701/IDN60701.95745.json

Data quality

Most of these data are generated automatically and are frequently updated. Quality checks on data are not normally performed. It is possible for incorrect values to appear. Refer to information at About Latest Weather Observations and please check the disclaimer before using these data.